sensor_id;sensor_type;location;lat;lon;timestamp;pressure;altitude;pressure_sealevel;temperature;humidity
79150;BME280;68563;45.644;13.782;2023-03-12T17:55:28;101332.41;;;20.38;46.30
79150;BME280;68563;45.644;13.782;2023-03-12T17:57:53;101340.38;;;20.37;46.88
79150;BME280;68563;45.644;13.782;2023-03-12T18:00:19;101336.09;;;20.34;46.73
79150;BME280;68563;45.644;13.782;2023-03-12T18:02:47;101351.81;;;20.36;46.63
79150;BME280;68563;45.644;13.782;2023-03-12T18:05:13;101353.53;;;20.37;46.76
79150;BME280;68563;45.644;13.782;2023-03-12T18:07:39;101356.06;;;20.38;46.14
79150;BME280;68563;45.644;13.782;2023-03-12T18:10:06;101362.84;;;20.44;45.87
79150;BME280;68563;45.644;13.782;2023-03-12T18:12:33;101371.53;;;20.46;45.93
79150;BME280;68563;45.644;13.782;2023-03-12T18:14:59;101387.97;;;20.51;45.84
79150;BME280;68563;45.644;13.782;2023-03-12T18:17:24;101400.16;;;20.54;46.04
79150;BME280;68563;45.644;13.782;2023-03-12T18:19:50;101411.44;;;20.56;45.86
79150;BME280;68563;45.644;13.782;2023-03-12T18:22:15;101419.28;;;20.58;45.70
79150;BME280;68563;45.644;13.782;2023-03-12T18:24:41;101430.59;;;20.60;45.91
79150;BME280;68563;45.644;13.782;2023-03-12T18:27:07;101432.31;;;20.61;45.92
79150;BME280;68563;45.644;13.782;2023-03-12T18:29:32;101438.47;;;20.60;46.35
79150;BME280;68563;45.644;13.782;2023-03-12T18:32:00;101441.00;;;20.63;46.27
79150;BME280;68563;45.644;13.782;2023-03-12T18:34:25;101454.16;;;20.63;46.42
79150;BME280;68563;45.644;13.782;2023-03-12T18:36:51;101440.84;;;20.66;46.40
79150;BME280;68563;45.644;13.782;2023-03-12T18:39:16;101445.16;;;20.68;46.54
79150;BME280;68563;45.644;13.782;2023-03-12T18:41:41;101443.34;;;20.69;46.41
79150;BME280;68563;45.644;13.782;2023-03-12T18:44:07;101440.66;;;20.70;46.41
79150;BME280;68563;45.644;13.782;2023-03-12T18:46:32;101444.16;;;20.71;46.51
79150;BME280;68563;45.644;13.782;2023-03-12T18:49:05;101446.75;;;20.72;46.56
79150;BME280;68563;45.644;13.782;2023-03-12T18:51:32;101452.00;;;20.72;46.65
79150;BME280;68563;45.644;13.782;2023-03-12T18:53:57;101464.19;;;20.75;46.83
79150;BME280;68563;45.644;13.782;2023-03-12T18:56:23;101461.47;;;20.77;46.97
79150;BME280;68563;45.644;13.782;2023-03-12T18:58:48;101464.06;;;20.78;46.91
79150;BME280;68563;45.644;13.782;2023-03-12T19:01:13;101458.78;;;20.78;46.94
79150;BME280;68563;45.644;13.782;2023-03-12T19:03:39;101471.81;;;20.81;46.83
79150;BME280;68563;45.644;13.782;2023-03-12T19:06:06;101466.53;;;20.81;46.92
79150;BME280;68563;45.644;13.782;2023-03-12T19:08:33;101470.88;;;20.82;46.96
79150;BME280;68563;45.644;13.782;2023-03-12T19:10:59;101470.88;;;20.82;46.99
79150;BME280;68563;45.644;13.782;2023-03-12T19:13:24;101468.25;;;20.82;47.12
79150;BME280;68563;45.644;13.782;2023-03-12T19:15:57;101468.13;;;20.85;46.92
79150;BME280;68563;45.644;13.782;2023-03-12T19:18:23;101463.59;;;20.89;46.81
79150;BME280;68563;45.644;13.782;2023-03-12T19:20:48;101468.78;;;20.91;47.01
79150;BME280;68563;45.644;13.782;2023-03-12T19:23:13;101467.88;;;20.92;47.01
79150;BME280;68563;45.644;13.782;2023-03-12T19:25:40;101467.78;;;20.93;47.01
79150;BME280;68563;45.644;13.782;2023-03-12T19:28:06;101472.13;;;20.94;47.25
79150;BME280;68563;45.644;13.782;2023-03-12T19:30:31;101483.59;;;20.93;47.21
79150;BME280;68563;45.644;13.782;2023-03-12T19:32:58;101487.94;;;20.94;46.88
79150;BME280;68563;45.644;13.782;2023-03-12T19:35:23;101485.22;;;20.96;47.26
79150;BME280;68563;45.644;13.782;2023-03-12T19:37:49;101475.63;;;20.95;47.16
79150;BME280;68563;45.644;13.782;2023-03-12T19:40:14;101475.56;;;20.96;47.56
79150;BME280;68563;45.644;13.782;2023-03-12T19:42:40;101456.19;;;20.97;47.34
79150;BME280;68563;45.644;13.782;2023-03-12T19:45:06;101447.31;;;21.00;47.25
79150;BME280;68563;45.644;13.782;2023-03-12T19:47:31;101437.63;;;21.00;47.62
79150;BME280;68563;45.644;13.782;2023-03-12T19:50:00;101437.56;;;21.02;47.47
79150;BME280;68563;45.644;13.782;2023-03-12T19:52:25;101444.63;;;21.01;47.41
79150;BME280;68563;45.644;13.782;2023-03-12T19:54:50;101448.03;;;21.03;47.49
79150;BME280;68563;45.644;13.782;2023-03-12T19:57:16;101448.03;;;21.03;47.48
79150;BME280;68563;45.644;13.782;2023-03-12T19:59:42;101462.13;;;21.02;47.29
79150;BME280;68563;45.644;13.782;2023-03-12T20:02:11;101462.06;;;21.04;47.63
79150;BME280;68563;45.644;13.782;2023-03-12T20:04:36;101468.13;;;21.06;47.54
79150;BME280;68563;45.644;13.782;2023-03-12T20:07:02;101470.59;;;21.09;47.09
79150;BME280;68563;45.644;13.782;2023-03-12T20:09:27;101465.34;;;21.09;47.28
79150;BME280;68563;45.644;13.782;2023-03-12T20:11:52;101458.34;;;21.08;47.32
79150;BME280;68563;45.644;13.782;2023-03-12T20:17:03;101474.03;;;21.11;47.52
79150;BME280;68563;45.644;13.782;2023-03-12T20:19:29;101481.94;;;21.11;47.06
79150;BME280;68563;45.644;13.782;2023-03-12T20:21:54;101484.56;;;21.11;47.06
79150;BME280;68563;45.644;13.782;2023-03-12T20:24:21;101481.22;;;21.08;47.67
79150;BME280;68563;45.644;13.782;2023-03-12T20:26:46;101475.75;;;21.12;47.48
79150;BME280;68563;45.644;13.782;2023-03-12T20:29:12;101478.22;;;21.15;47.26
79150;BME280;68563;45.644;13.782;2023-03-12T20:31:37;101472.91;;;21.17;46.98
79150;BME280;68563;45.644;13.782;2023-03-12T20:34:05;101472.75;;;21.20;47.03
79150;BME280;68563;45.644;13.782;2023-03-12T20:36:31;101476.47;;;21.16;47.17
79150;BME280;68563;45.644;13.782;2023-03-12T20:38:56;101491.19;;;21.20;47.22
79150;BME280;68563;45.644;13.782;2023-03-12T20:41:22;101499.97;;;21.20;47.07
79150;BME280;68563;45.644;13.782;2023-03-12T20:43:47;101499.09;;;21.20;47.30
79150;BME280;68563;45.644;13.782;2023-03-12T20:46:13;101506.91;;;21.22;47.24
79150;BME280;68563;45.644;13.782;2023-03-12T20:48:38;101506.00;;;21.23;47.00
79150;BME280;68563;45.644;13.782;2023-03-12T20:51:04;101510.34;;;21.24;47.22
79150;BME280;68563;45.644;13.782;2023-03-12T20:53:29;101512.91;;;21.25;47.16
79150;BME280;68563;45.644;13.782;2023-03-12T20:55:56;101512.91;;;21.25;47.19
79150;BME280;68563;45.644;13.782;2023-03-12T20:58:21;101500.69;;;21.24;47.31
79150;BME280;68563;45.644;13.782;2023-03-12T21:00:48;101501.53;;;21.25;47.16
79150;BME280;68563;45.644;13.782;2023-03-12T21:03:14;101497.09;;;21.25;46.97
79150;BME280;68563;45.644;13.782;2023-03-12T21:05:40;101496.13;;;21.28;47.11
79150;BME280;68563;45.644;13.782;2023-03-12T21:08:06;101500.47;;;21.29;46.87
79150;BME280;68563;45.644;13.782;2023-03-12T21:10:37;101497.69;;;21.32;47.01
79150;BME280;68563;45.644;13.782;2023-03-12T21:13:03;101495.06;;;21.32;46.73
79150;BME280;68563;45.644;13.782;2023-03-12T21:15:28;101500.25;;;21.33;46.78
79150;BME280;68563;45.644;13.782;2023-03-12T21:17:54;101510.78;;;21.33;47.02
79150;BME280;68563;45.644;13.782;2023-03-12T21:20:19;101505.47;;;21.35;46.81
79150;BME280;68563;45.644;13.782;2023-03-12T21:22:45;101512.44;;;21.36;46.71
79150;BME280;68563;45.644;13.782;2023-03-12T21:25:13;101508.03;;;21.36;46.80
79150;BME280;68563;45.644;13.782;2023-03-12T21:27:38;101513.38;;;21.35;46.65
79150;BME280;68563;45.644;13.782;2023-03-12T21:30:05;101508.03;;;21.36;46.93
79150;BME280;68563;45.644;13.782;2023-03-12T21:32:31;101501.84;;;21.38;46.85
79150;BME280;68563;45.644;13.782;2023-03-12T21:34:56;101502.69;;;21.38;46.79
79150;BME280;68563;45.644;13.782;2023-03-12T21:37:24;101505.31;;;21.38;46.93
79150;BME280;68563;45.644;13.782;2023-03-12T21:39:49;101501.84;;;21.38;46.92
79150;BME280;68563;45.644;13.782;2023-03-12T21:42:15;101497.50;;;21.36;46.85
79150;BME280;68563;45.644;13.782;2023-03-12T21:44:40;101500.97;;;21.37;46.66
79150;BME280;68563;45.644;13.782;2023-03-12T21:47:06;101497.41;;;21.38;46.82
79150;BME280;68563;45.644;13.782;2023-03-12T21:49:32;101503.47;;;21.40;46.90
79150;BME280;68563;45.644;13.782;2023-03-12T21:51:59;101488.59;;;21.39;46.75
79150;BME280;68563;45.644;13.782;2023-03-12T21:54:24;101493.78;;;21.41;46.74
79150;BME280;68563;45.644;13.782;2023-03-12T21:56:54;101490.38;;;21.39;46.82
79150;BME280;68563;45.644;13.782;2023-03-12T21:59:19;101485.88;;;21.41;46.55
79150;BME280;68563;45.644;13.782;2023-03-12T22:01:44;101492.88;;;21.42;46.50
79150;BME280;68563;45.644;13.782;2023-03-12T22:04:10;101493.78;;;21.41;46.53
79150;BME280;68563;45.644;13.782;2023-03-12T22:06:35;101495.56;;;21.40;46.48
79150;BME280;68563;45.644;13.782;2023-03-12T22:09:01;101502.56;;;21.41;46.48
79150;BME280;68563;45.644;13.782;2023-03-12T22:11:26;101504.25;;;21.42;46.49
79150;BME280;68563;45.644;13.782;2023-03-12T22:13:51;101504.25;;;21.42;46.61
79150;BME280;68563;45.644;13.782;2023-03-12T22:16:17;101507.84;;;21.41;46.55
79150;BME280;68563;45.644;13.782;2023-03-12T22:18:43;101504.31;;;21.41;46.56
79150;BME280;68563;45.644;13.782;2023-03-12T22:21:20;101508.75;;;21.40;46.67
79150;BME280;68563;45.644;13.782;2023-03-12T22:23:47;101502.56;;;21.41;46.43
79150;BME280;68563;45.644;13.782;2023-03-12T22:26:16;101504.41;;;21.39;46.36
79150;BME280;68563;45.644;13.782;2023-03-12T22:28:41;101508.75;;;21.40;46.48
79150;BME280;68563;45.644;13.782;2023-03-12T22:33:34;101511.38;;;21.40;46.58
79150;BME280;68563;45.644;13.782;2023-03-12T22:36:04;101523.66;;;21.41;46.36
79150;BME280;68563;45.644;13.782;2023-03-12T22:38:29;101516.66;;;21.40;46.42
79150;BME280;68563;45.644;13.782;2023-03-12T22:40:55;101518.38;;;21.41;46.61
79150;BME280;68563;45.644;13.782;2023-03-12T22:43:20;101519.38;;;21.39;46.40
79150;BME280;68563;45.644;13.782;2023-03-12T22:45:46;101521.84;;;21.42;46.48
79150;BME280;68563;45.644;13.782;2023-03-12T22:48:11;101521.78;;;21.43;46.58
79150;BME280;68563;45.644;13.782;2023-03-12T22:50:36;101514.78;;;21.42;46.83
79150;BME280;68563;45.644;13.782;2023-03-12T22:53:02;101523.66;;;21.41;46.71
79150;BME280;68563;45.644;13.782;2023-03-12T22:55:27;101523.66;;;21.41;46.73
79150;BME280;68563;45.644;13.782;2023-03-12T22:57:53;101522.06;;;21.37;46.96
79150;BME280;68563;45.644;13.782;2023-03-12T23:00:19;101521.94;;;21.40;46.64
79150;BME280;68563;45.644;13.782;2023-03-12T23:02:50;101508.13;;;21.35;46.85
79150;BME280;68563;45.644;13.782;2023-03-12T23:05:16;101515.88;;;21.38;47.07
79150;BME280;68563;45.644;13.782;2023-03-12T23:07:41;101514.94;;;21.39;46.82
79150;BME280;68563;45.644;13.782;2023-03-12T23:10:07;101517.56;;;21.39;47.11
79150;BME280;68563;45.644;13.782;2023-03-12T23:12:33;101521.94;;;21.40;47.33
79150;BME280;68563;45.644;13.782;2023-03-12T23:14:58;101517.56;;;21.39;47.12
79150;BME280;68563;45.644;13.782;2023-03-12T23:17:23;101510.59;;;21.38;47.04
79150;BME280;68563;45.644;13.782;2023-03-12T23:19:49;101515.03;;;21.38;47.11
79150;BME280;68563;45.644;13.782;2023-03-12T23:22:15;101520.28;;;21.38;46.80
79150;BME280;68563;45.644;13.782;2023-03-12T23:24:40;101521.13;;;21.38;47.17
79150;BME280;68563;45.644;13.782;2023-03-12T23:27:06;101526.41;;;21.38;46.85
79150;BME280;68563;45.644;13.782;2023-03-12T23:29:33;101533.38;;;21.39;46.71
79150;BME280;68563;45.644;13.782;2023-03-12T23:31:59;101536.16;;;21.36;46.85
79150;BME280;68563;45.644;13.782;2023-03-12T23:34:25;101530.84;;;21.38;46.77
79150;BME280;68563;45.644;13.782;2023-03-12T23:36:51;101535.22;;;21.37;46.50
79150;BME280;68563;45.644;13.782;2023-03-12T23:39:16;101536.16;;;21.36;46.64
79150;BME280;68563;45.644;13.782;2023-03-12T23:41:42;101537.88;;;21.37;47.05
79150;BME280;68563;45.644;13.782;2023-03-12T23:44:07;101536.03;;;21.39;46.84
79150;BME280;68563;45.644;13.782;2023-03-12T23:46:33;101531.75;;;21.36;46.90
79150;BME280;68563;45.644;13.782;2023-03-12T23:48:58;101543.00;;;21.40;46.82
79150;BME280;68563;45.644;13.782;2023-03-12T23:51:29;101541.28;;;21.39;46.48
79150;BME280;68563;45.644;13.782;2023-03-12T23:53:59;101543.09;;;21.39;46.61
79150;BME280;68563;45.644;13.782;2023-03-12T23:56:26;101546.63;;;21.38;46.85
79150;BME280;68563;45.644;13.782;2023-03-12T23:58:54;101548.41;;;21.37;46.66
